sensor_id;sensor_type;location;lat;lon;timestamp;temperature;humidity
2439;DHT22;14509;47.992;7.848;2023-08-06T00:00:32;20.30;57.90
2439;DHT22;14509;47.992;7.848;2023-08-06T00:02:34;20.10;59.00
2439;DHT22;14509;47.992;7.848;2023-08-06T00:04:37;20.00;59.50
2439;DHT22;14509;47.992;7.848;2023-08-06T00:06:39;20.40;60.70
2439;DHT22;14509;47.992;7.848;2023-08-06T00:08:41;19.70;60.50
2439;DHT22;14509;47.992;7.848;2023-08-06T00:10:43;19.70;61.10
2439;DHT22;14509;47.992;7.848;2023-08-06T00:12:44;19.70;61.50
2439;DHT22;14509;47.992;7.848;2023-08-06T00:14:50;19.70;61.60
2439;DHT22;14509;47.992;7.848;2023-08-06T00:16:52;19.70;61.70
2439;DHT22;14509;47.992;7.848;2023-08-06T00:18:54;19.80;61.70
2439;DHT22;14509;47.992;7.848;2023-08-06T00:20:57;19.70;62.10
2439;DHT22;14509;47.992;7.848;2023-08-06T00:22:59;19.70;62.50
2439;DHT22;14509;47.992;7.848;2023-08-06T00:25:01;19.60;62.60
2439;DHT22;14509;47.992;7.848;2023-08-06T00:27:03;19.70;62.90
2439;DHT22;14509;47.992;7.848;2023-08-06T00:29:05;19.60;62.90
2439;DHT22;14509;47.992;7.848;2023-08-06T00:31:07;19.50;61.90
2439;DHT22;14509;47.992;7.848;2023-08-06T00:33:09;19.50;62.40
2439;DHT22;14509;47.992;7.848;2023-08-06T00:35:12;19.50;62.60
2439;DHT22;14509;47.992;7.848;2023-08-06T00:37:16;19.60;62.80
2439;DHT22;14509;47.992;7.848;2023-08-06T00:39:18;19.60;62.90
2439;DHT22;14509;47.992;7.848;2023-08-06T00:41:20;19.70;62.80
2439;DHT22;14509;47.992;7.848;2023-08-06T00:43:22;19.60;62.00
2439;DHT22;14509;47.992;7.848;2023-08-06T00:45:25;19.70;61.90
2439;DHT22;14509;47.992;7.848;2023-08-06T00:47:27;19.60;61.90
2439;DHT22;14509;47.992;7.848;2023-08-06T00:49:30;19.70;62.00
2439;DHT22;14509;47.992;7.848;2023-08-06T00:51:32;19.70;62.10
2439;DHT22;14509;47.992;7.848;2023-08-06T00:53:39;19.70;62.20
2439;DHT22;14509;47.992;7.848;2023-08-06T00:55:42;20.00;62.50
2439;DHT22;14509;47.992;7.848;2023-08-06T00:57:46;19.70;62.20
2439;DHT22;14509;47.992;7.848;2023-08-06T00:59:49;19.70;61.90
2439;DHT22;14509;47.992;7.848;2023-08-06T01:01:51;19.60;61.30
2439;DHT22;14509;47.992;7.848;2023-08-06T01:03:53;19.60;60.90
2439;DHT22;14509;47.992;7.848;2023-08-06T01:05:55;19.60;61.20
2439;DHT22;14509;47.992;7.848;2023-08-06T01:08:09;19.60;61.00
2439;DHT22;14509;47.992;7.848;2023-08-06T01:10:23;19.70;61.00
2439;DHT22;14509;47.992;7.848;2023-08-06T01:12:44;19.80;60.80
2439;DHT22;14509;47.992;7.848;2023-08-06T01:14:52;19.80;60.30
2439;DHT22;14509;47.992;7.848;2023-08-06T01:16:55;19.90;59.90
2439;DHT22;14509;47.992;7.848;2023-08-06T01:18:58;20.00;59.70
2439;DHT22;14509;47.992;7.848;2023-08-06T01:21:00;20.10;59.50
2439;DHT22;14509;47.992;7.848;2023-08-06T01:23:04;20.20;59.20
2439;DHT22;14509;47.992;7.848;2023-08-06T01:25:06;20.30;58.80
2439;DHT22;14509;47.992;7.848;2023-08-06T01:27:14;20.30;58.40
2439;DHT22;14509;47.992;7.848;2023-08-06T01:29:22;20.70;58.40
2439;DHT22;14509;47.992;7.848;2023-08-06T01:31:28;20.80;58.00
2439;DHT22;14509;47.992;7.848;2023-08-06T01:33:32;20.60;57.60
2439;DHT22;14509;47.992;7.848;2023-08-06T01:35:35;20.70;57.10
2439;DHT22;14509;47.992;7.848;2023-08-06T01:37:41;20.80;56.60
2439;DHT22;14509;47.992;7.848;2023-08-06T01:39:44;20.80;56.60
2439;DHT22;14509;47.992;7.848;2023-08-06T01:41:46;20.80;56.70
2439;DHT22;14509;47.992;7.848;2023-08-06T01:43:49;20.90;57.20
2439;DHT22;14509;47.992;7.848;2023-08-06T01:45:51;20.90;56.90
2439;DHT22;14509;47.992;7.848;2023-08-06T01:47:52;20.90;56.90
2439;DHT22;14509;47.992;7.848;2023-08-06T01:49:53;20.90;57.20
2439;DHT22;14509;47.992;7.848;2023-08-06T01:51:56;20.80;56.80
2439;DHT22;14509;47.992;7.848;2023-08-06T01:53:59;20.80;56.90
2439;DHT22;14509;47.992;7.848;2023-08-06T01:56:00;20.90;57.40
2439;DHT22;14509;47.992;7.848;2023-08-06T01:58:02;20.70;57.00
2439;DHT22;14509;47.992;7.848;2023-08-06T02:00:05;20.80;57.10
2439;DHT22;14509;47.992;7.848;2023-08-06T02:02:13;20.80;56.40
2439;DHT22;14509;47.992;7.848;2023-08-06T02:04:15;20.80;57.00
2439;DHT22;14509;47.992;7.848;2023-08-06T02:06:17;20.90;56.50
2439;DHT22;14509;47.992;7.848;2023-08-06T02:08:19;21.00;57.00
2439;DHT22;14509;47.992;7.848;2023-08-06T02:10:23;21.00;57.80
2439;DHT22;14509;47.992;7.848;2023-08-06T02:12:24;20.90;58.10
2439;DHT22;14509;47.992;7.848;2023-08-06T02:14:27;20.90;58.60
2439;DHT22;14509;47.992;7.848;2023-08-06T02:16:29;20.90;59.00
2439;DHT22;14509;47.992;7.848;2023-08-06T02:18:31;20.70;59.70
2439;DHT22;14509;47.992;7.848;2023-08-06T02:20:34;20.80;60.70
2439;DHT22;14509;47.992;7.848;2023-08-06T02:22:36;20.50;61.40
2439;DHT22;14509;47.992;7.848;2023-08-06T02:24:38;20.30;61.90
2439;DHT22;14509;47.992;7.848;2023-08-06T02:26:41;20.10;62.60
2439;DHT22;14509;47.992;7.848;2023-08-06T02:28:44;20.00;63.20
2439;DHT22;14509;47.992;7.848;2023-08-06T02:30:50;19.70;63.70
2439;DHT22;14509;47.992;7.848;2023-08-06T02:32:52;19.40;65.00
2439;DHT22;14509;47.992;7.848;2023-08-06T02:34:53;19.30;65.60
2439;DHT22;14509;47.992;7.848;2023-08-06T02:36:56;19.30;66.00
2439;DHT22;14509;47.992;7.848;2023-08-06T02:38:57;19.40;65.70
2439;DHT22;14509;47.992;7.848;2023-08-06T02:40:58;19.30;65.60
2439;DHT22;14509;47.992;7.848;2023-08-06T02:43:01;19.30;66.10
2439;DHT22;14509;47.992;7.848;2023-08-06T02:45:03;19.20;67.40
2439;DHT22;14509;47.992;7.848;2023-08-06T02:47:05;19.20;67.90
2439;DHT22;14509;47.992;7.848;2023-08-06T02:49:07;19.20;68.40
2439;DHT22;14509;47.992;7.848;2023-08-06T02:51:09;19.10;68.10
2439;DHT22;14509;47.992;7.848;2023-08-06T02:53:11;19.10;67.60
2439;DHT22;14509;47.992;7.848;2023-08-06T02:55:13;19.20;67.50
2439;DHT22;14509;47.992;7.848;2023-08-06T02:57:18;19.00;67.10
2439;DHT22;14509;47.992;7.848;2023-08-06T02:59:24;19.00;67.20
2439;DHT22;14509;47.992;7.848;2023-08-06T03:01:46;18.90;67.20
2439;DHT22;14509;47.992;7.848;2023-08-06T03:03:55;18.90;67.20
2439;DHT22;14509;47.992;7.848;2023-08-06T03:06:03;19.00;67.20
2439;DHT22;14509;47.992;7.848;2023-08-06T03:08:13;18.90;67.20
2439;DHT22;14509;47.992;7.848;2023-08-06T03:10:14;18.90;66.70
2439;DHT22;14509;47.992;7.848;2023-08-06T03:12:17;19.10;66.70
2439;DHT22;14509;47.992;7.848;2023-08-06T03:14:19;18.80;65.70
2439;DHT22;14509;47.992;7.848;2023-08-06T03:16:23;18.70;65.70
2439;DHT22;14509;47.992;7.848;2023-08-06T03:18:25;19.10;66.20
2439;DHT22;14509;47.992;7.848;2023-08-06T03:20:27;18.50;65.20
2439;DHT22;14509;47.992;7.848;2023-08-06T03:22:28;18.50;65.80
2439;DHT22;14509;47.992;7.848;2023-08-06T03:24:30;18.30;65.30
2439;DHT22;14509;47.992;7.848;2023-08-06T03:26:32;18.30;65.40
2439;DHT22;14509;47.992;7.848;2023-08-06T03:28:34;18.20;65.30
2439;DHT22;14509;47.992;7.848;2023-08-06T03:30:36;18.20;65.30
2439;DHT22;14509;47.992;7.848;2023-08-06T03:32:39;18.20;65.50
2439;DHT22;14509;47.992;7.848;2023-08-06T03:34:42;19.00;66.20
2439;DHT22;14509;47.992;7.848;2023-08-06T03:36:44;18.20;65.10
2439;DHT22;14509;47.992;7.848;2023-08-06T03:38:46;18.20;64.80
2439;DHT22;14509;47.992;7.848;2023-08-06T03:40:49;18.20;64.80
2439;DHT22;14509;47.992;7.848;2023-08-06T03:42:51;18.20;64.50
2439;DHT22;14509;47.992;7.848;2023-08-06T03:44:52;18.10;64.30
2439;DHT22;14509;47.992;7.848;2023-08-06T03:46:54;18.10;64.50
2439;DHT22;14509;47.992;7.848;2023-08-06T03:48:57;18.10;64.30
2439;DHT22;14509;47.992;7.848;2023-08-06T03:51:00;18.10;64.10
2439;DHT22;14509;47.992;7.848;2023-08-06T03:53:02;18.00;64.00
2439;DHT22;14509;47.992;7.848;2023-08-06T03:55:05;18.00;63.80
2439;DHT22;14509;47.992;7.848;2023-08-06T03:57:06;18.00;63.80
2439;DHT22;14509;47.992;7.848;2023-08-06T03:59:08;18.00;63.80
2439;DHT22;14509;47.992;7.848;2023-08-06T04:01:10;17.90;63.70
2439;DHT22;14509;47.992;7.848;2023-08-06T04:03:17;17.90;63.80
2439;DHT22;14509;47.992;7.848;2023-08-06T04:05:19;17.80;63.80
2439;DHT22;14509;47.992;7.848;2023-08-06T04:07:21;17.70;63.80
2439;DHT22;14509;47.992;7.848;2023-08-06T04:09:23;18.00;64.20
2439;DHT22;14509;47.992;7.848;2023-08-06T04:11:25;17.70;64.00
2439;DHT22;14509;47.992;7.848;2023-08-06T04:13:26;17.70;64.20
2439;DHT22;14509;47.992;7.848;2023-08-06T04:15:28;17.70;64.30
2439;DHT22;14509;47.992;7.848;2023-08-06T04:17:31;17.60;64.40
2439;DHT22;14509;47.992;7.848;2023-08-06T04:19:34;17.60;64.20
2439;DHT22;14509;47.992;7.848;2023-08-06T04:21:37;17.60;64.60
2439;DHT22;14509;47.992;7.848;2023-08-06T04:23:39;17.70;64.50
2439;DHT22;14509;47.992;7.848;2023-08-06T04:25:42;17.80;64.30
2439;DHT22;14509;47.992;7.848;2023-08-06T04:27:44;17.90;64.40
2439;DHT22;14509;47.992;7.848;2023-08-06T04:29:46;18.20;64.50
2439;DHT22;14509;47.992;7.848;2023-08-06T04:31:48;18.10;64.10
2439;DHT22;14509;47.992;7.848;2023-08-06T04:33:51;18.40;63.70
2439;DHT22;14509;47.992;7.848;2023-08-06T04:35:56;18.10;63.30
2439;DHT22;14509;47.992;7.848;2023-08-06T04:38:00;18.20;63.20
2439;DHT22;14509;47.992;7.848;2023-08-06T04:40:01;18.20;63.50
2439;DHT22;14509;47.992;7.848;2023-08-06T04:42:04;18.20;63.00
2439;DHT22;14509;47.992;7.848;2023-08-06T04:44:06;18.30;63.00
2439;DHT22;14509;47.992;7.848;2023-08-06T04:46:07;18.30;62.60
2439;DHT22;14509;47.992;7.848;2023-08-06T04:48:09;18.30;62.40
2439;DHT22;14509;47.992;7.848;2023-08-06T04:50:11;18.40;62.60
2439;DHT22;14509;47.992;7.848;2023-08-06T04:52:13;18.40;62.70
2439;DHT22;14509;47.992;7.848;2023-08-06T04:54:16;19.00;63.30
2439;DHT22;14509;47.992;7.848;2023-08-06T04:56:18;17.70;63.30
2439;DHT22;14509;47.992;7.848;2023-08-06T04:58:19;17.90;64.30
2439;DHT22;14509;47.992;7.848;2023-08-06T05:00:21;17.70;65.60
2439;DHT22;14509;47.992;7.848;2023-08-06T05:02:23;17.60;66.40
2439;DHT22;14509;47.992;7.848;2023-08-06T05:04:25;17.60;67.90
2439;DHT22;14509;47.992;7.848;2023-08-06T05:06:27;17.40;68.70
2439;DHT22;14509;47.992;7.848;2023-08-06T05:08:28;17.20;69.60
2439;DHT22;14509;47.992;7.848;2023-08-06T05:10:32;17.20;70.00
2439;DHT22;14509;47.992;7.848;2023-08-06T05:12:33;17.20;69.60
2439;DHT22;14509;47.992;7.848;2023-08-06T05:14:36;17.10;69.90
2439;DHT22;14509;47.992;7.848;2023-08-06T05:16:38;17.10;69.80
2439;DHT22;14509;47.992;7.848;2023-08-06T05:18:40;17.10;69.80
2439;DHT22;14509;47.992;7.848;2023-08-06T05:20:42;17.20;69.80
2439;DHT22;14509;47.992;7.848;2023-08-06T05:22:44;17.00;69.30
2439;DHT22;14509;47.992;7.848;2023-08-06T05:24:46;17.00;70.40
2439;DHT22;14509;47.992;7.848;2023-08-06T05:26:50;16.90;70.70
2439;DHT22;14509;47.992;7.848;2023-08-06T05:28:50;16.90;70.60
2439;DHT22;14509;47.992;7.848;2023-08-06T05:30:52;18.60;72.20
2439;DHT22;14509;47.992;7.848;2023-08-06T05:32:53;17.10;70.30
2439;DHT22;14509;47.992;7.848;2023-08-06T05:34:55;17.20;70.20
2439;DHT22;14509;47.992;7.848;2023-08-06T05:36:57;17.20;70.20
2439;DHT22;14509;47.992;7.848;2023-08-06T05:38:59;17.20;70.00
2439;DHT22;14509;47.992;7.848;2023-08-06T05:41:01;17.30;69.90
2439;DHT22;14509;47.992;7.848;2023-08-06T05:43:04;17.40;69.90
2439;DHT22;14509;47.992;7.848;2023-08-06T05:45:06;17.40;69.70
2439;DHT22;14509;47.992;7.848;2023-08-06T05:47:08;17.40;69.60
2439;DHT22;14509;47.992;7.848;2023-08-06T05:49:09;17.40;69.40
2439;DHT22;14509;47.992;7.848;2023-08-06T05:51:13;17.40;69.60
2439;DHT22;14509;47.992;7.848;2023-08-06T05:53:16;17.40;69.50
2439;DHT22;14509;47.992;7.848;2023-08-06T05:55:17;17.30;69.00
2439;DHT22;14509;47.992;7.848;2023-08-06T05:57:19;17.20;68.90
2439;DHT22;14509;47.992;7.848;2023-08-06T05:59:21;17.20;69.00
2439;DHT22;14509;47.992;7.848;2023-08-06T06:01:23;17.20;68.80
2439;DHT22;14509;47.992;7.848;2023-08-06T06:03:25;17.20;68.80
2439;DHT22;14509;47.992;7.848;2023-08-06T06:05:27;17.10;68.60
2439;DHT22;14509;47.992;7.848;2023-08-06T06:07:29;17.20;70.20
2439;DHT22;14509;47.992;7.848;2023-08-06T06:09:29;18.20;70.40
2439;DHT22;14509;47.992;7.848;2023-08-06T06:11:31;17.70;69.40
2439;DHT22;14509;47.992;7.848;2023-08-06T06:13:33;17.50;68.00
2439;DHT22;14509;47.992;7.848;2023-08-06T06:15:36;17.50;67.10
2439;DHT22;14509;47.992;7.848;2023-08-06T06:17:38;17.60;68.00
2439;DHT22;14509;47.992;7.848;2023-08-06T06:19:40;17.60;67.40
2439;DHT22;14509;47.992;7.848;2023-08-06T06:21:42;17.70;67.10
2439;DHT22;14509;47.992;7.848;2023-08-06T06:23:44;17.60;67.10
2439;DHT22;14509;47.992;7.848;2023-08-06T06:25:48;17.60;66.30
2439;DHT22;14509;47.992;7.848;2023-08-06T06:27:52;17.50;66.70
2439;DHT22;14509;47.992;7.848;2023-08-06T06:29:54;17.50;66.90
2439;DHT22;14509;47.992;7.848;2023-08-06T06:31:57;17.50;67.40
2439;DHT22;14509;47.992;7.848;2023-08-06T06:33:59;17.50;67.40
2439;DHT22;14509;47.992;7.848;2023-08-06T06:36:01;17.50;67.70
2439;DHT22;14509;47.992;7.848;2023-08-06T06:38:04;17.50;67.90
2439;DHT22;14509;47.992;7.848;2023-08-06T06:40:07;17.50;67.70
2439;DHT22;14509;47.992;7.848;2023-08-06T06:42:09;17.40;67.80
2439;DHT22;14509;47.992;7.848;2023-08-06T06:44:17;17.30;68.20
2439;DHT22;14509;47.992;7.848;2023-08-06T06:46:20;17.30;68.60
2439;DHT22;14509;47.992;7.848;2023-08-06T06:48:24;17.40;68.90
2439;DHT22;14509;47.992;7.848;2023-08-06T06:50:26;17.30;68.70
2439;DHT22;14509;47.992;7.848;2023-08-06T06:52:27;17.30;68.80
2439;DHT22;14509;47.992;7.848;2023-08-06T06:54:29;17.30;69.00
2439;DHT22;14509;47.992;7.848;2023-08-06T06:56:31;17.90;69.70
2439;DHT22;14509;47.992;7.848;2023-08-06T06:58:33;17.30;69.00
2439;DHT22;14509;47.992;7.848;2023-08-06T07:00:35;17.40;69.20
2439;DHT22;14509;47.992;7.848;2023-08-06T07:02:37;17.40;69.00
2439;DHT22;14509;47.992;7.848;2023-08-06T07:04:41;18.20;69.70
2439;DHT22;14509;47.992;7.848;2023-08-06T07:06:43;17.50;68.40
2439;DHT22;14509;47.992;7.848;2023-08-06T07:08:45;17.50;68.50
2439;DHT22;14509;47.992;7.848;2023-08-06T07:10:47;17.60;68.60
2439;DHT22;14509;47.992;7.848;2023-08-06T07:12:48;18.40;69.10
2439;DHT22;14509;47.992;7.848;2023-08-06T07:14:50;17.80;68.50
2439;DHT22;14509;47.992;7.848;2023-08-06T07:16:52;17.80;67.60
2439;DHT22;14509;47.992;7.848;2023-08-06T07:18:54;17.80;67.30
2439;DHT22;14509;47.992;7.848;2023-08-06T07:20:58;17.80;67.20
2439;DHT22;14509;47.992;7.848;2023-08-06T07:23:00;18.20;67.30
2439;DHT22;14509;47.992;7.848;2023-08-06T07:25:03;17.90;67.10
2439;DHT22;14509;47.992;7.848;2023-08-06T07:27:05;17.90;67.10
2439;DHT22;14509;47.992;7.848;2023-08-06T07:29:07;18.00;66.90
2439;DHT22;14509;47.992;7.848;2023-08-06T07:31:09;17.90;65.90
2439;DHT22;14509;47.992;7.848;2023-08-06T07:33:11;17.90;66.70
2439;DHT22;14509;47.992;7.848;2023-08-06T07:35:14;18.20;66.60
2439;DHT22;14509;47.992;7.848;2023-08-06T07:37:17;17.90;66.20
2439;DHT22;14509;47.992;7.848;2023-08-06T07:39:19;18.40;66.80
2439;DHT22;14509;47.992;7.848;2023-08-06T07:41:21;18.70;67.30
2439;DHT22;14509;47.992;7.848;2023-08-06T07:43:24;18.30;66.50
2439;DHT22;14509;47.992;7.848;2023-08-06T07:45:25;18.20;66.20
2439;DHT22;14509;47.992;7.848;2023-08-06T07:47:28;18.50;65.60
2439;DHT22;14509;47.992;7.848;2023-08-06T07:49:30;18.40;65.40
2439;DHT22;14509;47.992;7.848;2023-08-06T07:51:32;18.60;64.70
2439;DHT22;14509;47.992;7.848;2023-08-06T07:53:36;18.50;64.60
2439;DHT22;14509;47.992;7.848;2023-08-06T07:55:38;18.70;64.40
2439;DHT22;14509;47.992;7.848;2023-08-06T07:57:40;18.90;64.00
2439;DHT22;14509;47.992;7.848;2023-08-06T07:59:42;19.20;63.30
2439;DHT22;14509;47.992;7.848;2023-08-06T08:01:44;19.30;62.60
2439;DHT22;14509;47.992;7.848;2023-08-06T08:03:46;20.00;61.80
2439;DHT22;14509;47.992;7.848;2023-08-06T08:05:48;19.60;60.90
2439;DHT22;14509;47.992;7.848;2023-08-06T08:07:49;19.50;60.10
2439;DHT22;14509;47.992;7.848;2023-08-06T08:09:53;19.50;61.20
2439;DHT22;14509;47.992;7.848;2023-08-06T08:11:54;19.50;61.40
2439;DHT22;14509;47.992;7.848;2023-08-06T08:13:57;19.60;61.60
2439;DHT22;14509;47.992;7.848;2023-08-06T08:15:58;19.30;61.70
2439;DHT22;14509;47.992;7.848;2023-08-06T08:18:00;19.10;62.60
2439;DHT22;14509;47.992;7.848;2023-08-06T08:20:02;19.00;63.40
2439;DHT22;14509;47.992;7.848;2023-08-06T08:22:05;19.00;63.90
2439;DHT22;14509;47.992;7.848;2023-08-06T08:24:08;18.90;63.50
2439;DHT22;14509;47.992;7.848;2023-08-06T08:26:11;18.90;63.90
2439;DHT22;14509;47.992;7.848;2023-08-06T08:28:13;19.90;65.50
2439;DHT22;14509;47.992;7.848;2023-08-06T08:30:16;19.00;64.10
2439;DHT22;14509;47.992;7.848;2023-08-06T08:32:18;18.90;63.90
2439;DHT22;14509;47.992;7.848;2023-08-06T08:34:21;18.90;64.00
2439;DHT22;14509;47.992;7.848;2023-08-06T08:36:23;18.90;64.10
2439;DHT22;14509;47.992;7.848;2023-08-06T08:38:24;18.90;64.70
2439;DHT22;14509;47.992;7.848;2023-08-06T08:40:31;18.80;65.00
2439;DHT22;14509;47.992;7.848;2023-08-06T08:42:35;18.80;65.80
2439;DHT22;14509;47.992;7.848;2023-08-06T08:44:38;18.60;65.70
2439;DHT22;14509;47.992;7.848;2023-08-06T08:46:42;18.60;66.50
2439;DHT22;14509;47.992;7.848;2023-08-06T08:48:45;18.60;66.90
2439;DHT22;14509;47.992;7.848;2023-08-06T08:50:49;18.60;67.00
2439;DHT22;14509;47.992;7.848;2023-08-06T08:52:52;18.70;67.10
2439;DHT22;14509;47.992;7.848;2023-08-06T08:54:54;18.80;66.50
2439;DHT22;14509;47.992;7.848;2023-08-06T08:56:57;19.00;67.00
2439;DHT22;14509;47.992;7.848;2023-08-06T08:59:01;19.10;64.50
2439;DHT22;14509;47.992;7.848;2023-08-06T09:01:04;19.20;64.50
2439;DHT22;14509;47.992;7.848;2023-08-06T09:03:08;19.30;63.50
2439;DHT22;14509;47.992;7.848;2023-08-06T09:05:10;19.30;63.80
2439;DHT22;14509;47.992;7.848;2023-08-06T09:07:16;19.10;63.40
2439;DHT22;14509;47.992;7.848;2023-08-06T09:09:25;19.10;63.50
2439;DHT22;14509;47.992;7.848;2023-08-06T09:11:27;19.40;64.50
2439;DHT22;14509;47.992;7.848;2023-08-06T09:13:32;19.10;63.40
2439;DHT22;14509;47.992;7.848;2023-08-06T09:15:35;19.60;64.00
2439;DHT22;14509;47.992;7.848;2023-08-06T09:17:37;19.00;63.80
2439;DHT22;14509;47.992;7.848;2023-08-06T09:19:42;19.10;63.30
2439;DHT22;14509;47.992;7.848;2023-08-06T09:21:46;19.10;63.20
2439;DHT22;14509;47.992;7.848;2023-08-06T09:23:49;19.20;63.60
2439;DHT22;14509;47.992;7.848;2023-08-06T09:25:51;19.20;63.00
2439;DHT22;14509;47.992;7.848;2023-08-06T09:27:53;19.90;63.60
2439;DHT22;14509;47.992;7.848;2023-08-06T09:29:55;19.10;62.60
2439;DHT22;14509;47.992;7.848;2023-08-06T09:31:57;18.90;63.30
2439;DHT22;14509;47.992;7.848;2023-08-06T09:34:00;18.90;63.60
2439;DHT22;14509;47.992;7.848;2023-08-06T09:36:07;19.00;63.40
2439;DHT22;14509;47.992;7.848;2023-08-06T09:38:10;19.20;62.50
2439;DHT22;14509;47.992;7.848;2023-08-06T09:40:25;19.30;61.90
2439;DHT22;14509;47.992;7.848;2023-08-06T09:42:28;19.40;61.40
2439;DHT22;14509;47.992;7.848;2023-08-06T09:44:32;19.50;61.30
2439;DHT22;14509;47.992;7.848;2023-08-06T09:46:35;20.10;62.30
2439;DHT22;14509;47.992;7.848;2023-08-06T09:48:37;19.60;60.60
2439;DHT22;14509;47.992;7.848;2023-08-06T09:50:39;19.90;61.00
2439;DHT22;14509;47.992;7.848;2023-08-06T09:52:42;19.80;60.10
2439;DHT22;14509;47.992;7.848;2023-08-06T09:54:44;19.90;59.70
2439;DHT22;14509;47.992;7.848;2023-08-06T09:56:46;20.00;59.10
2439;DHT22;14509;47.992;7.848;2023-08-06T09:58:49;20.10;59.50
2439;DHT22;14509;47.992;7.848;2023-08-06T10:00:52;20.20;59.70
2439;DHT22;14509;47.992;7.848;2023-08-06T10:02:55;20.30;59.50
2439;DHT22;14509;47.992;7.848;2023-08-06T10:05:02;20.10;59.60
2439;DHT22;14509;47.992;7.848;2023-08-06T10:07:04;20.00;59.20
2439;DHT22;14509;47.992;7.848;2023-08-06T10:09:07;19.90;59.40
2439;DHT22;14509;47.992;7.848;2023-08-06T10:11:10;19.90;59.40
2439;DHT22;14509;47.992;7.848;2023-08-06T10:13:13;19.90;59.60
2439;DHT22;14509;47.992;7.848;2023-08-06T10:15:23;20.10;58.90
2439;DHT22;14509;47.992;7.848;2023-08-06T10:17:26;20.10;58.90
2439;DHT22;14509;47.992;7.848;2023-08-06T10:19:29;20.10;58.40
2439;DHT22;14509;47.992;7.848;2023-08-06T10:21:34;20.20;58.00
2439;DHT22;14509;47.992;7.848;2023-08-06T10:23:36;20.20;58.00
2439;DHT22;14509;47.992;7.848;2023-08-06T10:25:41;20.40;58.00
2439;DHT22;14509;47.992;7.848;2023-08-06T10:27:54;20.40;57.30
2439;DHT22;14509;47.992;7.848;2023-08-06T10:29:55;21.50;58.30
2439;DHT22;14509;47.992;7.848;2023-08-06T10:31:59;20.80;57.60
2439;DHT22;14509;47.992;7.848;2023-08-06T10:34:01;20.60;57.90
2439;DHT22;14509;47.992;7.848;2023-08-06T10:36:04;20.20;57.80
2439;DHT22;14509;47.992;7.848;2023-08-06T10:38:12;20.10;58.60
2439;DHT22;14509;47.992;7.848;2023-08-06T10:40:20;19.90;59.00
2439;DHT22;14509;47.992;7.848;2023-08-06T10:42:22;19.70;59.10
2439;DHT22;14509;47.992;7.848;2023-08-06T10:44:24;19.60;59.30
2439;DHT22;14509;47.992;7.848;2023-08-06T10:46:27;19.60;59.50
2439;DHT22;14509;47.992;7.848;2023-08-06T10:48:30;19.50;59.80
2439;DHT22;14509;47.992;7.848;2023-08-06T10:50:32;19.90;60.60
2439;DHT22;14509;47.992;7.848;2023-08-06T10:52:34;19.50;60.80
2439;DHT22;14509;47.992;7.848;2023-08-06T10:54:38;19.80;62.80
2439;DHT22;14509;47.992;7.848;2023-08-06T10:56:41;19.30;62.50
2439;DHT22;14509;47.992;7.848;2023-08-06T10:58:44;19.20;61.90
2439;DHT22;14509;47.992;7.848;2023-08-06T11:00:46;19.30;62.70
2439;DHT22;14509;47.992;7.848;2023-08-06T11:02:49;19.00;63.90
2439;DHT22;14509;47.992;7.848;2023-08-06T11:04:51;19.60;64.20
2439;DHT22;14509;47.992;7.848;2023-08-06T11:06:53;18.80;63.40
2439;DHT22;14509;47.992;7.848;2023-08-06T11:08:55;18.60;64.20
2439;DHT22;14509;47.992;7.848;2023-08-06T11:11:09;18.90;65.50
2439;DHT22;14509;47.992;7.848;2023-08-06T11:13:16;18.50;65.90
2439;DHT22;14509;47.992;7.848;2023-08-06T11:15:20;18.60;66.00
2439;DHT22;14509;47.992;7.848;2023-08-06T11:17:22;18.40;66.20
2439;DHT22;14509;47.992;7.848;2023-08-06T11:19:25;19.10;67.60
2439;DHT22;14509;47.992;7.848;2023-08-06T11:21:27;19.00;68.60
2439;DHT22;14509;47.992;7.848;2023-08-06T11:23:29;18.60;68.30
2439;DHT22;14509;47.992;7.848;2023-08-06T11:25:31;18.20;68.20
2439;DHT22;14509;47.992;7.848;2023-08-06T11:27:34;18.20;68.60
2439;DHT22;14509;47.992;7.848;2023-08-06T11:29:37;18.60;69.30
2439;DHT22;14509;47.992;7.848;2023-08-06T11:31:39;18.50;69.30
2439;DHT22;14509;47.992;7.848;2023-08-06T11:33:41;18.40;69.40
2439;DHT22;14509;47.992;7.848;2023-08-06T11:35:43;18.50;69.20
2439;DHT22;14509;47.992;7.848;2023-08-06T11:37:45;18.90;69.30
2439;DHT22;14509;47.992;7.848;2023-08-06T11:39:47;18.80;68.80
2439;DHT22;14509;47.992;7.848;2023-08-06T11:41:49;18.70;68.50
2439;DHT22;14509;47.992;7.848;2023-08-06T11:43:52;18.80;66.60
2439;DHT22;14509;47.992;7.848;2023-08-06T11:45:55;19.70;67.90
2439;DHT22;14509;47.992;7.848;2023-08-06T11:47:57;18.80;67.00
2439;DHT22;14509;47.992;7.848;2023-08-06T11:50:00;18.80;67.00
2439;DHT22;14509;47.992;7.848;2023-08-06T11:52:09;19.10;66.80
2439;DHT22;14509;47.992;7.848;2023-08-06T11:54:10;18.90;65.90
2439;DHT22;14509;47.992;7.848;2023-08-06T11:56:11;19.00;65.90
2439;DHT22;14509;47.992;7.848;2023-08-06T11:58:17;20.10;67.10
2439;DHT22;14509;47.992;7.848;2023-08-06T12:00:24;19.80;65.60
2439;DHT22;14509;47.992;7.848;2023-08-06T12:02:26;19.70;65.50
2439;DHT22;14509;47.992;7.848;2023-08-06T12:04:30;20.10;65.00
2439;DHT22;14509;47.992;7.848;2023-08-06T12:06:42;19.90;64.50
2439;DHT22;14509;47.992;7.848;2023-08-06T12:08:44;19.40;64.40
2439;DHT22;14509;47.992;7.848;2023-08-06T12:10:46;20.00;64.30
2439;DHT22;14509;47.992;7.848;2023-08-06T12:12:48;19.90;64.40
2439;DHT22;14509;47.992;7.848;2023-08-06T12:14:50;19.80;64.80
2439;DHT22;14509;47.992;7.848;2023-08-06T12:16:53;20.70;66.10
2439;DHT22;14509;47.992;7.848;2023-08-06T12:18:55;20.00;65.70
2439;DHT22;14509;47.992;7.848;2023-08-06T12:20:57;19.60;65.30
2439;DHT22;14509;47.992;7.848;2023-08-06T12:23:00;19.70;65.80
2439;DHT22;14509;47.992;7.848;2023-08-06T12:25:02;19.70;66.00
2439;DHT22;14509;47.992;7.848;2023-08-06T12:27:07;19.70;66.40
2439;DHT22;14509;47.992;7.848;2023-08-06T12:29:09;20.10;66.50
2439;DHT22;14509;47.992;7.848;2023-08-06T12:31:11;20.00;65.30
2439;DHT22;14509;47.992;7.848;2023-08-06T12:33:14;20.10;65.00
2439;DHT22;14509;47.992;7.848;2023-08-06T12:35:16;20.10;64.50
2439;DHT22;14509;47.992;7.848;2023-08-06T12:37:18;20.40;64.70
2439;DHT22;14509;47.992;7.848;2023-08-06T12:39:19;20.40;62.40
2439;DHT22;14509;47.992;7.848;2023-08-06T12:41:21;20.70;61.60
2439;DHT22;14509;47.992;7.848;2023-08-06T12:43:23;20.40;60.80
2439;DHT22;14509;47.992;7.848;2023-08-06T12:45:28;20.50;59.60
2439;DHT22;14509;47.992;7.848;2023-08-06T12:47:30;20.20;59.20
2439;DHT22;14509;47.992;7.848;2023-08-06T12:49:33;20.40;61.40
2439;DHT22;14509;47.992;7.848;2023-08-06T12:51:35;19.70;64.50
2439;DHT22;14509;47.992;7.848;2023-08-06T12:53:37;19.40;66.40
2439;DHT22;14509;47.992;7.848;2023-08-06T12:55:38;19.20;67.10
2439;DHT22;14509;47.992;7.848;2023-08-06T12:57:41;19.00;68.50
2439;DHT22;14509;47.992;7.848;2023-08-06T12:59:43;18.80;68.60
2439;DHT22;14509;47.992;7.848;2023-08-06T13:01:45;18.80;68.80
2439;DHT22;14509;47.992;7.848;2023-08-06T13:03:47;18.80;69.50
2439;DHT22;14509;47.992;7.848;2023-08-06T13:05:50;18.90;70.00
2439;DHT22;14509;47.992;7.848;2023-08-06T13:07:52;19.00;70.10